createdAt,value
2022-10-18T00:03:09.537Z,15.67
2022-10-18T00:08:31.640Z,15.59
2022-10-18T00:13:53.353Z,15.52
2022-10-18T00:19:15.625Z,15.47
2022-10-18T00:24:37.299Z,15.44
2022-10-18T00:29:59.162Z,15.45
2022-10-18T00:35:20.862Z,15.42
2022-10-18T00:40:42.563Z,15.36
2022-10-18T00:46:04.387Z,15.38
2022-10-18T00:51:30.905Z,15.35
2022-10-18T00:56:52.801Z,15.43
2022-10-18T01:02:18.195Z,15.47
2022-10-18T01:07:57.705Z,15.48
2022-10-18T01:13:34.925Z,15.56
2022-10-18T01:19:19.106Z,15.52
2022-10-18T01:24:59.674Z,15.53
2022-10-18T01:30:41.599Z,15.57
2022-10-18T01:36:27.171Z,15.56
2022-10-18T01:41:52.610Z,15.59
2022-10-18T01:47:15.562Z,15.64
2022-10-18T01:52:50.826Z,15.62
2022-10-18T01:58:22.399Z,15.58
2022-10-18T02:03:48.335Z,15.59
2022-10-18T02:09:18.060Z,15.57
2022-10-18T02:14:41.261Z,15.56
2022-10-18T02:20:07.085Z,15.55
2022-10-18T02:25:31.795Z,15.55
2022-10-18T02:31:07.188Z,15.46
2022-10-18T02:36:34.933Z,15.51
2022-10-18T02:41:58.185Z,15.52
2022-10-18T02:47:19.888Z,15.53
2022-10-18T02:52:41.589Z,15.50
2022-10-18T02:58:03.348Z,15.55
2022-10-18T03:03:25.057Z,15.54
2022-10-18T03:08:46.726Z,15.52
2022-10-18T03:14:08.416Z,15.51
2022-10-18T03:19:30.082Z,15.48
2022-10-18T03:24:51.760Z,15.51
2022-10-18T03:30:13.776Z,15.52
2022-10-18T03:35:35.496Z,15.57
2022-10-18T03:40:57.213Z,15.70
2022-10-18T03:46:18.925Z,15.73
2022-10-18T03:51:40.650Z,15.79
2022-10-18T03:57:02.376Z,15.69
2022-10-18T04:02:24.404Z,15.62
2022-10-18T04:07:46.150Z,15.49
2022-10-18T04:13:08.399Z,15.57
2022-10-18T04:18:30.168Z,15.51
2022-10-18T04:23:51.875Z,15.47
2022-10-18T04:29:13.669Z,15.43
2022-10-18T04:34:35.435Z,15.50
2022-10-18T04:39:57.427Z,15.52
2022-10-18T04:45:19.096Z,15.59
2022-10-18T04:50:41.053Z,15.63
2022-10-18T04:56:02.852Z,15.58
2022-10-18T05:01:24.585Z,15.42
2022-10-18T05:06:46.301Z,15.33
2022-10-18T05:12:08.071Z,15.45
2022-10-18T05:17:29.790Z,15.60
2022-10-18T05:22:51.539Z,15.73
2022-10-18T05:28:38.106Z,15.83
2022-10-18T05:33:54.942Z,15.78
2022-10-18T05:39:16.683Z,15.72
2022-10-18T05:44:38.353Z,15.68
2022-10-18T05:50:00.048Z,15.72
2022-10-18T05:55:21.717Z,15.77
2022-10-18T06:00:43.509Z,15.81
2022-10-18T06:06:10.671Z,15.88
2022-10-18T06:11:32.577Z,15.89
2022-10-18T06:16:56.365Z,15.90
2022-10-18T06:22:18.097Z,15.93
2022-10-18T06:27:39.773Z,16.00
2022-10-18T06:33:01.595Z,16.15
2022-10-18T06:38:23.611Z,16.21
2022-10-18T06:43:56.897Z,16.25
2022-10-18T06:49:19.476Z,16.25
2022-10-18T06:54:41.239Z,16.32
2022-10-18T07:00:04.248Z,16.37
2022-10-18T07:05:26.051Z,16.46
2022-10-18T07:10:53.052Z,16.57
2022-10-18T07:16:18.745Z,16.69
2022-10-18T07:21:40.756Z,16.85
2022-10-18T07:27:02.595Z,16.89
2022-10-18T07:32:24.293Z,16.95
2022-10-18T07:37:46.286Z,17.09
2022-10-18T07:43:11.437Z,17.14
2022-10-18T07:48:33.802Z,17.23
2022-10-18T07:53:55.525Z,17.30
2022-10-18T07:59:17.245Z,17.36
2022-10-18T08:04:38.934Z,17.39
2022-10-18T08:10:00.608Z,17.44
2022-10-18T08:15:24.897Z,17.50
2022-10-18T08:20:46.812Z,17.47
2022-10-18T08:26:12.492Z,17.51
2022-10-18T08:31:34.365Z,17.48
2022-10-18T08:36:56.079Z,17.56
2022-10-18T08:42:35.848Z,17.54
2022-10-18T08:47:58.271Z,17.58
2022-10-18T08:53:40.058Z,17.63
2022-10-18T08:59:06.795Z,17.64
2022-10-18T09:05:03.383Z,17.65
2022-10-18T09:10:52.996Z,17.70
2022-10-18T09:16:24.433Z,17.78
2022-10-18T09:22:06.273Z,17.89
2022-10-18T09:27:51.646Z,18.04
2022-10-18T09:33:25.926Z,18.18
2022-10-18T09:38:53.770Z,18.31
2022-10-18T09:44:24.349Z,18.33
2022-10-18T09:49:50.955Z,18.24
2022-10-18T09:55:25.001Z,18.15
2022-10-18T10:00:50.640Z,18.05
2022-10-18T10:06:12.262Z,18.04
2022-10-18T10:11:37.840Z,18.03
2022-10-18T10:17:03.306Z,18.04
2022-10-18T10:22:35.824Z,18.01
2022-10-18T10:28:03.726Z,18.00
2022-10-18T10:33:38.048Z,17.99
2022-10-18T10:39:11.666Z,18.01
2022-10-18T10:44:36.542Z,18.05
2022-10-18T10:49:58.246Z,18.14
2022-10-18T10:55:34.887Z,18.20
2022-10-18T11:00:57.905Z,18.32
2022-10-18T11:06:33.697Z,18.33
2022-10-18T11:12:02.717Z,18.37
2022-10-18T11:17:37.486Z,18.43
2022-10-18T11:23:18.892Z,18.48
2022-10-18T11:28:46.653Z,18.47
2022-10-18T11:34:36.549Z,18.54
2022-10-18T11:40:17.142Z,18.64
2022-10-18T11:45:46.054Z,18.71
2022-10-18T11:51:55.944Z,18.81
2022-10-18T11:57:31.950Z,18.98
2022-10-18T12:03:11.634Z,18.88
2022-10-18T12:08:38.739Z,18.95
2022-10-18T12:14:13.535Z,18.97
2022-10-18T12:19:35.848Z,19.14
2022-10-18T12:24:57.545Z,19.38
2022-10-18T12:30:42.319Z,19.27
2022-10-18T12:36:22.254Z,19.16
2022-10-18T12:41:47.148Z,19.23
2022-10-18T12:47:22.868Z,19.29
2022-10-18T12:52:44.584Z,19.35
2022-10-18T12:58:28.404Z,19.35
2022-10-18T13:03:56.139Z,19.26
2022-10-18T13:09:20.881Z,19.31
2022-10-18T13:15:05.754Z,19.43
2022-10-18T13:21:01.015Z,19.35
2022-10-18T13:26:25.483Z,19.33
2022-10-18T13:32:27.549Z,19.29
2022-10-18T13:37:59.373Z,19.23
2022-10-18T13:43:59.669Z,19.31
2022-10-18T13:49:39.607Z,19.28
2022-10-18T13:55:06.567Z,19.20
2022-10-18T14:01:05.677Z,19.16
2022-10-18T14:06:35.185Z,19.15
2022-10-18T14:12:17.967Z,19.15
2022-10-18T14:17:48.348Z,19.11
2022-10-18T14:23:16.745Z,19.08
2022-10-18T14:28:55.538Z,19.04
2022-10-18T14:34:21.077Z,19.02
2022-10-18T14:39:42.796Z,19.03
2022-10-18T14:45:18.448Z,18.99
2022-10-18T14:50:41.844Z,18.95
2022-10-18T14:56:04.413Z,18.95
2022-10-18T15:01:29.990Z,18.92
2022-10-18T15:06:51.764Z,18.97
2022-10-18T15:12:15.771Z,18.99
2022-10-18T15:17:37.896Z,18.98
2022-10-18T15:23:22.173Z,18.97
2022-10-18T15:28:52.604Z,18.92
2022-10-18T15:34:25.932Z,18.89
2022-10-18T15:39:47.712Z,18.87
2022-10-18T15:51:31.373Z,18.79
2022-10-18T15:56:53.052Z,18.75
2022-10-18T16:02:15.471Z,18.73
2022-10-18T16:07:37.271Z,18.69
2022-10-18T16:12:58.983Z,18.69
2022-10-18T16:18:20.760Z,18.68
2022-10-18T16:23:42.459Z,18.67
2022-10-18T16:29:05.222Z,18.61
2022-10-18T16:34:27.391Z,18.59
2022-10-18T16:39:49.091Z,18.56
2022-10-18T16:45:10.762Z,18.48
2022-10-18T16:50:34.668Z,18.40
2022-10-18T16:55:59.769Z,18.43
2022-10-18T17:01:23.158Z,18.37
2022-10-18T17:06:45.095Z,18.43
2022-10-18T17:12:06.834Z,18.45
2022-10-18T17:17:28.629Z,18.43
2022-10-18T17:22:50.515Z,18.36
2022-10-18T17:28:16.809Z,18.37
2022-10-18T17:33:38.550Z,18.33
2022-10-18T17:39:00.551Z,18.26
2022-10-18T17:44:23.000Z,18.16
2022-10-18T17:49:45.843Z,18.05
2022-10-18T17:55:07.959Z,17.99
2022-10-18T18:00:29.783Z,17.94
2022-10-18T18:05:51.603Z,18.02
2022-10-18T18:11:13.845Z,17.98
2022-10-18T18:16:38.124Z,17.86
2022-10-18T18:22:00.315Z,17.81
2022-10-18T18:27:22.157Z,17.68
2022-10-18T18:32:43.919Z,17.61
2022-10-18T18:38:05.762Z,17.53
2022-10-18T18:43:27.434Z,17.49
2022-10-18T18:48:49.513Z,17.44
2022-10-18T18:54:13.833Z,17.42
2022-10-18T18:59:35.688Z,17.28
2022-10-18T19:04:57.442Z,17.26
2022-10-18T19:10:19.243Z,17.22
2022-10-18T19:15:40.927Z,17.18
2022-10-18T19:21:03.818Z,17.05
2022-10-18T19:26:27.531Z,17.02
2022-10-18T19:31:50.838Z,16.98
2022-10-18T19:37:13.437Z,16.93
2022-10-18T19:42:37.300Z,16.89
2022-10-18T19:47:59.416Z,16.82
2022-10-18T19:53:21.133Z,16.74
2022-10-18T19:58:42.862Z,16.71
2022-10-18T20:04:04.854Z,16.61
2022-10-18T20:09:26.568Z,16.46
2022-10-18T20:14:48.309Z,16.44
2022-10-18T20:20:10.634Z,16.39
2022-10-18T20:25:32.464Z,16.32
2022-10-18T20:31:06.281Z,16.28
2022-10-18T20:36:29.557Z,16.29
2022-10-18T20:41:51.240Z,16.27
2022-10-18T20:47:12.923Z,16.23
2022-10-18T20:52:34.604Z,16.16
2022-10-18T20:57:57.980Z,16.06
2022-10-18T21:03:19.642Z,15.99
2022-10-18T21:08:42.161Z,15.90
2022-10-18T21:14:04.941Z,15.80
2022-10-18T21:19:27.271Z,15.80
2022-10-18T21:24:50.691Z,15.76
2022-10-18T21:35:37.707Z,15.52
2022-10-18T21:40:59.590Z,15.59
2022-10-18T21:46:22.968Z,15.68
2022-10-18T21:51:45.091Z,15.61
2022-10-18T21:57:06.798Z,15.57
2022-10-18T22:02:28.510Z,15.55
2022-10-18T22:07:50.215Z,15.59
2022-10-18T22:13:11.900Z,15.43
2022-10-18T22:18:34.352Z,15.35
2022-10-18T22:23:57.601Z,15.41
2022-10-18T22:29:21.400Z,15.32
2022-10-18T22:34:43.184Z,15.28
2022-10-18T22:40:05.420Z,15.23
2022-10-18T22:45:27.148Z,15.22
2022-10-18T22:50:48.896Z,15.34
2022-10-18T22:56:16.905Z,15.39
2022-10-18T23:01:38.607Z,15.45
2022-10-18T23:07:00.314Z,15.46
2022-10-18T23:12:22.137Z,15.32
2022-10-18T23:17:43.800Z,15.31
2022-10-18T23:23:05.471Z,15.20
2022-10-18T23:28:27.190Z,15.06
2022-10-18T23:33:51.152Z,15.02
2022-10-18T23:39:12.862Z,15.07
2022-10-18T23:44:34.575Z,15.13
2022-10-18T23:49:58.702Z,15.13
2022-10-18T23:55:20.410Z,15.11
